createdAt,value
2023-02-19T00:01:55.696Z,1022.62
2023-02-19T00:03:55.624Z,1022.56
2023-02-19T00:05:55.609Z,1022.55
2023-02-19T00:07:55.639Z,1022.55
2023-02-19T00:09:55.651Z,1022.50
2023-02-19T00:11:55.651Z,1022.50
2023-02-19T00:13:55.698Z,1022.50
2023-02-19T00:15:55.618Z,1022.50
2023-02-19T00:17:55.591Z,1022.48
2023-02-19T00:19:55.627Z,1022.48
2023-02-19T00:21:55.610Z,1022.45
2023-02-19T00:23:55.600Z,1022.45
2023-02-19T00:25:55.667Z,1022.45
2023-02-19T00:27:55.601Z,1022.40
2023-02-19T00:29:55.596Z,1022.38
2023-02-19T00:31:55.694Z,1022.38
2023-02-19T00:33:55.617Z,1022.39
2023-02-19T00:35:55.612Z,1022.39
2023-02-19T00:37:55.645Z,1022.41
2023-02-19T00:39:55.593Z,1022.34
2023-02-19T00:42:25.694Z,1022.37
2023-02-19T00:44:25.601Z,1022.37
2023-02-19T00:46:25.678Z,1022.37
2023-02-19T00:48:25.607Z,1022.39
2023-02-19T00:50:25.625Z,1022.38
2023-02-19T00:52:25.637Z,1022.38
2023-02-19T00:54:25.706Z,1022.38
2023-02-19T00:56:25.620Z,1022.36
2023-02-19T00:58:25.604Z,1022.40
2023-02-19T01:00:25.729Z,1022.41
2023-02-19T01:02:25.617Z,1022.40
2023-02-19T01:04:25.639Z,1022.40
2023-02-19T01:06:25.629Z,1022.40
2023-02-19T01:08:25.639Z,1022.40
2023-02-19T01:10:25.656Z,1022.34
2023-02-19T01:12:25.623Z,1022.34
2023-02-19T01:14:25.731Z,1022.27
2023-02-19T01:16:25.653Z,1022.24
2023-02-19T01:18:25.623Z,1022.16
2023-02-19T01:20:25.620Z,1022.16
2023-02-19T01:22:25.613Z,1022.16
2023-02-19T01:24:25.647Z,1022.08
2023-02-19T01:26:25.663Z,1021.99
2023-02-19T01:28:25.690Z,1022.00
2023-02-19T01:30:25.691Z,1021.97
2023-02-19T01:32:25.697Z,1021.97
2023-02-19T01:34:25.651Z,1021.92
2023-02-19T01:36:25.639Z,1021.87
2023-02-19T01:38:25.644Z,1021.85
2023-02-19T01:40:25.622Z,1021.81
2023-02-19T01:42:25.641Z,1021.81
2023-02-19T01:44:25.642Z,1021.60
2023-02-19T01:46:25.679Z,1021.60
2023-02-19T01:48:25.645Z,1021.26
2023-02-19T01:50:25.653Z,1021.26
2023-02-19T01:52:25.655Z,1021.32
2023-02-19T01:54:25.644Z,1021.37
2023-02-19T01:56:25.719Z,1021.37
2023-02-19T01:58:25.645Z,1021.53
2023-02-19T02:00:25.755Z,1021.53
2023-02-19T02:02:25.764Z,1021.44
2023-02-19T02:04:25.677Z,1021.35
2023-02-19T02:06:25.658Z,1021.14
2023-02-19T02:08:25.676Z,1021.22
2023-02-19T02:10:25.681Z,1021.22
2023-02-19T02:12:25.653Z,1021.32
2023-02-19T02:14:25.694Z,1021.23
2023-02-19T02:16:25.702Z,1021.22
2023-02-19T02:18:25.689Z,1021.22
2023-02-19T02:20:25.792Z,1021.28
2023-02-19T02:22:25.672Z,1021.26
2023-02-19T02:24:25.688Z,1021.27
2023-02-19T02:26:25.651Z,1021.27
2023-02-19T02:28:25.677Z,1021.27
2023-02-19T02:30:55.791Z,1021.21
2023-02-19T02:32:55.683Z,1021.21
2023-02-19T02:34:55.680Z,1021.13
2023-02-19T02:36:55.720Z,1021.18
2023-02-19T02:38:55.754Z,1021.18
2023-02-19T02:40:55.740Z,1021.08
2023-02-19T02:42:55.691Z,1021.08
2023-02-19T02:44:55.695Z,1021.08
2023-02-19T02:46:55.691Z,1021.12
2023-02-19T02:48:55.705Z,1021.09
2023-02-19T02:50:55.703Z,1021.09
2023-02-19T02:52:55.706Z,1021.12
2023-02-19T02:54:55.695Z,1021.07
2023-02-19T02:56:55.723Z,1021.00
2023-02-19T02:58:55.714Z,1020.96
2023-02-19T03:00:55.809Z,1020.96
2023-02-19T03:02:55.692Z,1020.98
2023-02-19T03:04:55.731Z,1020.89
2023-02-19T03:06:55.718Z,1020.89
2023-02-19T03:08:55.727Z,1020.90
2023-02-19T03:10:55.711Z,1020.90
2023-02-19T03:12:55.713Z,1020.88
2023-02-19T03:14:55.706Z,1020.84
2023-02-19T03:16:55.712Z,1020.87
2023-02-19T03:18:55.700Z,1020.87
2023-02-19T03:20:55.707Z,1020.81
2023-02-19T03:22:55.712Z,1020.82
2023-02-19T03:24:55.802Z,1020.78
2023-02-19T03:26:55.711Z,1020.78
2023-02-19T03:28:55.708Z,1020.78
2023-02-19T03:30:55.839Z,1020.81
2023-02-19T03:32:55.746Z,1020.81
2023-02-19T03:34:55.740Z,1020.81
2023-02-19T03:36:55.833Z,1020.83
2023-02-19T03:38:56.020Z,1020.83
2023-02-19T03:40:55.723Z,1020.86
2023-02-19T03:42:56.240Z,1020.83
2023-02-19T03:44:55.738Z,1020.80
2023-02-19T03:46:55.722Z,1020.80
2023-02-19T03:48:55.829Z,1020.80
2023-02-19T03:50:55.720Z,1020.70
2023-02-19T03:52:55.721Z,1020.70
2023-02-19T03:54:55.750Z,1020.71
2023-02-19T03:56:55.787Z,1020.71
2023-02-19T03:58:55.817Z,1020.75
2023-02-19T04:00:55.727Z,1020.81
2023-02-19T04:02:55.749Z,1020.84
2023-02-19T04:04:55.774Z,1020.85
2023-02-19T04:06:55.740Z,1020.85
2023-02-19T04:08:55.743Z,1020.86
2023-02-19T04:10:55.745Z,1020.90
2023-02-19T04:12:55.748Z,1020.94
2023-02-19T04:14:55.812Z,1020.94
2023-02-19T04:16:55.835Z,1020.87
2023-02-19T04:18:55.743Z,1020.90
2023-02-19T04:21:25.753Z,1020.93
2023-02-19T04:23:25.744Z,1020.94
2023-02-19T04:25:25.760Z,1020.94
2023-02-19T04:27:25.759Z,1021.02
2023-02-19T04:29:25.821Z,1021.02
2023-02-19T04:31:25.822Z,1021.08
2023-02-19T04:33:25.847Z,1021.04
2023-02-19T04:35:25.756Z,1021.04
2023-02-19T04:37:26.005Z,1021.15
2023-02-19T04:39:25.764Z,1021.25
2023-02-19T04:41:25.848Z,1021.30
2023-02-19T04:43:25.762Z,1021.39
2023-02-19T04:45:25.746Z,1021.39
2023-02-19T04:47:25.756Z,1021.33
2023-02-19T04:49:25.880Z,1021.43
2023-02-19T04:51:25.759Z,1021.43
2023-02-19T04:53:25.757Z,1021.43
2023-02-19T04:55:25.800Z,1021.45
2023-02-19T04:57:25.786Z,1021.60
2023-02-19T04:59:25.828Z,1021.63
2023-02-19T05:01:25.773Z,1021.64
2023-02-19T05:03:25.762Z,1021.64
2023-02-19T05:05:25.776Z,1021.67
2023-02-19T05:07:25.909Z,1021.65
2023-02-19T05:09:25.771Z,1021.65
2023-02-19T05:11:25.832Z,1021.67
2023-02-19T05:13:25.915Z,1021.67
2023-02-19T05:15:25.849Z,1021.69
2023-02-19T05:17:25.773Z,1021.67
2023-02-19T05:19:25.777Z,1021.68
2023-02-19T05:21:25.773Z,1021.68
2023-02-19T05:23:25.784Z,1021.72
2023-02-19T05:25:25.767Z,1021.74
2023-02-19T05:27:25.837Z,1021.75
2023-02-19T05:29:25.776Z,1021.86
2023-02-19T05:31:25.916Z,1021.86
2023-02-19T05:33:25.812Z,1021.94
2023-02-19T05:35:25.788Z,1021.91
2023-02-19T05:37:25.787Z,1022.02
2023-02-19T05:39:25.898Z,1021.96
2023-02-19T05:41:25.858Z,1021.96
2023-02-19T05:43:25.864Z,1022.04
2023-02-19T05:45:25.914Z,1022.05
2023-02-19T05:47:25.796Z,1022.07
2023-02-19T05:49:26.150Z,1022.07
2023-02-19T05:51:26.079Z,1022.07
2023-02-19T05:53:25.970Z,1022.14
2023-02-19T05:55:25.914Z,1022.16
2023-02-19T05:57:26.057Z,1022.18
2023-02-19T05:59:25.930Z,1022.18
2023-02-19T06:01:25.933Z,1022.07
2023-02-19T06:03:26.118Z,1021.99
2023-02-19T06:05:26.101Z,1022.10
2023-02-19T06:07:33.119Z,1021.96
2023-02-19T06:09:26.249Z,1021.96
2023-02-19T06:11:56.068Z,1021.98
2023-02-19T06:13:56.113Z,1021.98
2023-02-19T06:15:35.872Z,1022.03
2023-02-19T06:17:35.898Z,1022.03
2023-02-19T06:19:36.004Z,1022.02
2023-02-19T06:21:35.953Z,1021.99
2023-02-19T06:23:35.981Z,1021.88
2023-02-19T06:25:35.896Z,1021.90
2023-02-19T06:27:36.011Z,1021.90
2023-02-19T06:29:35.931Z,1021.97
2023-02-19T06:31:36.014Z,1021.97
2023-02-19T06:33:35.972Z,1022.01
2023-02-19T06:35:35.966Z,1021.98
2023-02-19T06:37:35.991Z,1021.98
2023-02-19T06:39:36.008Z,1022.08
2023-02-19T06:41:35.947Z,1022.08
2023-02-19T06:43:35.902Z,1022.02
2023-02-19T06:45:35.974Z,1022.17
2023-02-19T06:47:35.945Z,1022.17
2023-02-19T06:50:05.970Z,1022.21
2023-02-19T06:52:05.910Z,1022.22
2023-02-19T06:54:06.016Z,1022.25
2023-02-19T06:56:05.940Z,1022.16
2023-02-19T06:58:06.027Z,1022.31
2023-02-19T07:00:05.941Z,1022.31
2023-02-19T07:02:05.971Z,1022.40
2023-02-19T07:04:06.010Z,1022.52
2023-02-19T07:06:05.914Z,1022.43
2023-02-19T07:08:05.904Z,1022.59
2023-02-19T07:10:05.913Z,1022.59
2023-02-19T07:12:05.938Z,1022.59
2023-02-19T07:14:05.902Z,1022.64
2023-02-19T07:16:05.942Z,1022.68
2023-02-19T07:18:05.964Z,1022.68
2023-02-19T07:20:05.904Z,1022.71
2023-02-19T07:22:05.919Z,1022.73
2023-02-19T07:24:05.988Z,1022.70
2023-02-19T07:26:06.135Z,1022.79
2023-02-19T07:28:05.927Z,1022.79
2023-02-19T07:30:05.967Z,1022.73
2023-02-19T07:32:06.005Z,1022.76
2023-02-19T07:34:05.963Z,1022.83
2023-02-19T07:36:06.069Z,1022.80
2023-02-19T07:38:06.040Z,1022.80
2023-02-19T07:40:06.147Z,1022.80
2023-02-19T07:42:05.967Z,1022.83
2023-02-19T07:44:05.994Z,1022.84
2023-02-19T07:46:05.906Z,1022.84
2023-02-19T07:48:05.906Z,1022.84
2023-02-19T07:50:05.916Z,1022.84
2023-02-19T07:52:05.917Z,1022.84
2023-02-19T07:54:05.932Z,1022.84
2023-02-19T07:56:06.046Z,1022.84
2023-02-19T07:58:06.213Z,1023.03
2023-02-19T08:00:05.981Z,1022.98
2023-02-19T08:02:05.917Z,1022.98
2023-02-19T08:04:05.944Z,1023.02
2023-02-19T08:06:05.959Z,1023.02
2023-02-19T08:08:05.927Z,1023.02
2023-02-19T08:10:05.932Z,1023.12
2023-02-19T08:12:05.931Z,1023.12
2023-02-19T08:14:06.144Z,1023.18
2023-02-19T08:16:17.087Z,1023.18
2023-02-19T08:18:05.971Z,1023.18
2023-02-19T08:20:05.967Z,1023.22
2023-02-19T08:22:05.944Z,1023.20
2023-02-19T08:24:05.934Z,1023.20
2023-02-19T08:26:05.960Z,1023.31
2023-02-19T08:28:06.161Z,1023.33
2023-02-19T08:30:05.992Z,1023.38
2023-02-19T08:32:06.049Z,1023.38
2023-02-19T08:34:05.980Z,1023.38
2023-02-19T08:36:05.946Z,1023.44
2023-02-19T08:38:05.946Z,1023.47
2023-02-19T08:40:05.942Z,1023.61
2023-02-19T08:42:36.072Z,1023.68
2023-02-19T08:44:35.955Z,1023.68
2023-02-19T08:46:35.962Z,1023.72
2023-02-19T08:48:35.958Z,1023.77
2023-02-19T08:50:35.947Z,1023.85
2023-02-19T08:52:35.962Z,1023.85
2023-02-19T08:54:37.250Z,1023.85
2023-02-19T08:56:35.963Z,1023.97
2023-02-19T08:58:36.076Z,1023.95
2023-02-19T09:00:35.991Z,1023.95
2023-02-19T09:02:35.996Z,1023.95
2023-02-19T09:04:35.994Z,1024.05
2023-02-19T09:06:35.954Z,1024.04
2023-02-19T09:08:36.130Z,1024.05
2023-02-19T09:10:35.981Z,1024.01
2023-02-19T09:12:35.967Z,1024.01
2023-02-19T09:14:35.991Z,1024.01
2023-02-19T09:16:35.988Z,1024.09
2023-02-19T09:18:35.973Z,1024.13
2023-02-19T09:20:35.999Z,1024.13
2023-02-19T09:22:35.992Z,1024.10
2023-02-19T09:24:35.974Z,1024.17
2023-02-19T09:26:37.729Z,1024.16
2023-02-19T09:28:35.991Z,1024.16
2023-02-19T09:30:36.072Z,1024.16
2023-02-19T09:32:35.990Z,1024.31
2023-02-19T09:34:35.996Z,1024.41
2023-02-19T09:36:36.021Z,1024.42
2023-02-19T09:38:36.005Z,1024.49
2023-02-19T09:40:35.978Z,1024.49
2023-02-19T09:42:36.018Z,1024.49
2023-02-19T09:44:35.982Z,1024.47
2023-02-19T09:46:36.019Z,1024.49
2023-02-19T09:48:36.117Z,1024.49
2023-02-19T09:50:36.000Z,1024.49
2023-02-19T09:52:35.986Z,1024.52
2023-02-19T09:54:35.997Z,1024.52
2023-02-19T09:56:36.014Z,1024.62
2023-02-19T09:58:36.007Z,1024.62
2023-02-19T10:00:35.996Z,1024.66
2023-02-19T10:02:35.997Z,1024.66
2023-02-19T10:04:36.006Z,1024.76
2023-02-19T10:06:36.022Z,1024.73
2023-02-19T10:08:36.001Z,1024.73
2023-02-19T10:10:36.009Z,1024.72
2023-02-19T10:12:36.010Z,1024.74
2023-02-19T10:14:36.013Z,1024.74
2023-02-19T10:16:36.014Z,1024.72
2023-02-19T10:18:36.028Z,1024.72
2023-02-19T10:20:36.008Z,1024.73
2023-02-19T10:22:36.104Z,1024.66
2023-02-19T10:24:38.361Z,1024.54
2023-02-19T10:26:36.001Z,1024.54
2023-02-19T10:28:36.031Z,1024.54
2023-02-19T10:30:36.124Z,1024.54
2023-02-19T10:32:36.041Z,1024.52
2023-02-19T10:35:06.035Z,1024.52
2023-02-19T10:37:06.026Z,1024.56
2023-02-19T10:39:06.232Z,1024.73
2023-02-19T10:41:06.212Z,1024.73
2023-02-19T10:43:06.020Z,1024.64
2023-02-19T10:45:06.022Z,1024.73
2023-02-19T10:47:06.017Z,1024.68
2023-02-19T10:49:06.150Z,1024.62
2023-02-19T10:51:06.023Z,1024.62
2023-02-19T10:53:06.010Z,1024.70
2023-02-19T10:55:06.038Z,1024.85
2023-02-19T10:57:06.152Z,1024.88
2023-02-19T10:59:06.039Z,1024.88
2023-02-19T11:01:06.310Z,1024.99
2023-02-19T11:03:06.029Z,1024.95
2023-02-19T11:05:06.083Z,1024.94
2023-02-19T11:07:06.032Z,1024.89
2023-02-19T11:09:06.048Z,1024.89
2023-02-19T11:11:06.034Z,1024.81
2023-02-19T11:13:06.129Z,1024.75
2023-02-19T11:15:06.545Z,1024.75
2023-02-19T11:17:06.071Z,1024.75
2023-02-19T11:19:06.071Z,1024.75
2023-02-19T11:21:06.072Z,1024.75
2023-02-19T11:23:06.069Z,1024.77
2023-02-19T11:25:06.060Z,1024.75
2023-02-19T11:27:06.221Z,1024.75
2023-02-19T11:29:06.056Z,1024.65
2023-02-19T11:31:06.126Z,1024.65
2023-02-19T11:33:06.055Z,1024.78
2023-02-19T11:35:06.072Z,1024.84
2023-02-19T11:37:06.044Z,1024.84
2023-02-19T11:39:06.073Z,1024.69
2023-02-19T11:41:06.088Z,1024.81
2023-02-19T11:43:06.087Z,1024.81
2023-02-19T11:45:06.079Z,1024.86
2023-02-19T11:47:06.109Z,1024.86
2023-02-19T11:49:06.131Z,1024.85
2023-02-19T11:51:06.086Z,1024.90
2023-02-19T11:53:06.079Z,1024.95
2023-02-19T11:55:06.062Z,1024.95
2023-02-19T11:57:06.187Z,1024.95
2023-02-19T11:59:06.063Z,1025.04
2023-02-19T12:01:06.086Z,1025.13
2023-02-19T12:03:06.082Z,1025.11
2023-02-19T12:05:06.083Z,1025.11
2023-02-19T12:07:06.116Z,1025.04
2023-02-19T12:09:06.071Z,1025.01
2023-02-19T12:11:06.093Z,1024.99
2023-02-19T12:13:06.091Z,1025.06
2023-02-19T12:15:06.078Z,1025.06
2023-02-19T12:17:06.099Z,1025.04
2023-02-19T12:19:06.199Z,1025.02
2023-02-19T12:21:06.115Z,1025.02
2023-02-19T12:23:06.108Z,1025.02
2023-02-19T12:25:06.077Z,1025.06
2023-02-19T12:27:06.076Z,1025.06
2023-02-19T12:29:36.090Z,1025.02
2023-02-19T12:31:36.238Z,1025.03
2023-02-19T12:33:36.124Z,1025.03
2023-02-19T12:35:36.106Z,1025.03
2023-02-19T12:37:36.233Z,1025.03
2023-02-19T12:39:36.167Z,1025.16
2023-02-19T12:41:36.190Z,1025.09
2023-02-19T12:43:36.166Z,1025.09
2023-02-19T12:45:36.372Z,1025.04
2023-02-19T12:47:36.205Z,1024.94
2023-02-19T12:49:36.103Z,1024.99
2023-02-19T12:51:36.128Z,1024.91
2023-02-19T12:53:36.241Z,1024.91
2023-02-19T12:55:36.184Z,1024.88
2023-02-19T12:57:36.247Z,1024.75
2023-02-19T12:59:36.185Z,1024.70
2023-02-19T13:01:36.218Z,1024.70
2023-02-19T13:03:36.223Z,1024.82
2023-02-19T13:05:36.126Z,1024.82
2023-02-19T13:07:36.209Z,1024.81
2023-02-19T13:11:44.375Z,1024.85
2023-02-19T13:13:44.383Z,1024.97
2023-02-19T13:15:44.391Z,1024.97
2023-02-19T13:17:44.389Z,1024.97
2023-02-19T13:19:44.401Z,1024.83
2023-02-19T13:21:44.371Z,1024.83
2023-02-19T13:23:44.394Z,1024.83
2023-02-19T13:25:44.385Z,1024.76
2023-02-19T13:27:44.382Z,1024.76
2023-02-19T13:29:44.438Z,1025.01
2023-02-19T13:31:44.484Z,1025.01
2023-02-19T13:33:44.392Z,1025.01
2023-02-19T13:35:44.390Z,1024.95
2023-02-19T13:37:44.393Z,1025.02
2023-02-19T13:39:44.414Z,1025.02
2023-02-19T13:41:44.396Z,1024.92
2023-02-19T13:43:44.405Z,1024.92
2023-02-19T13:45:44.392Z,1024.92
2023-02-19T13:47:44.401Z,1024.95
2023-02-19T13:49:44.394Z,1024.92
2023-02-19T13:51:44.499Z,1024.83
2023-02-19T13:53:44.405Z,1024.83
2023-02-19T13:55:44.405Z,1024.86
2023-02-19T13:57:44.418Z,1024.86
2023-02-19T13:59:44.399Z,1024.97
2023-02-19T14:01:44.448Z,1024.97
2023-02-19T14:03:44.408Z,1025.00
2023-02-19T14:05:44.399Z,1025.08
2023-02-19T14:07:44.512Z,1024.93
2023-02-19T14:09:44.433Z,1024.94
2023-02-19T14:11:44.394Z,1024.94
2023-02-19T14:13:44.440Z,1024.94
2023-02-19T14:15:44.541Z,1024.88
2023-02-19T14:17:44.397Z,1024.89
2023-02-19T14:19:44.418Z,1024.91
2023-02-19T14:21:44.515Z,1024.91
2023-02-19T14:23:44.430Z,1024.99
2023-02-19T14:25:44.420Z,1025.02
2023-02-19T14:27:44.413Z,1025.02
2023-02-19T14:29:44.459Z,1025.02
2023-02-19T14:31:44.550Z,1025.05
2023-02-19T14:33:44.406Z,1025.18
2023-02-19T14:35:44.424Z,1025.29
2023-02-19T14:37:44.437Z,1025.29
2023-02-19T14:39:44.422Z,1025.29
2023-02-19T14:41:44.416Z,1025.40
2023-02-19T14:43:44.420Z,1025.40
2023-02-19T14:45:44.422Z,1025.43
2023-02-19T14:47:44.424Z,1025.41
2023-02-19T14:49:44.413Z,1025.41
2023-02-19T14:51:44.417Z,1025.45
2023-02-19T14:53:44.447Z,1025.45
2023-02-19T14:56:14.445Z,1025.45
2023-02-19T14:58:14.434Z,1025.45
2023-02-19T15:00:14.447Z,1025.56
2023-02-19T15:02:14.436Z,1025.60
2023-02-19T15:04:14.423Z,1025.68
2023-02-19T15:06:14.452Z,1025.67
2023-02-19T15:08:14.460Z,1025.67
2023-02-19T15:10:14.458Z,1025.57
2023-02-19T15:12:14.444Z,1025.49
2023-02-19T15:14:14.437Z,1025.56
2023-02-19T15:16:14.482Z,1025.66
2023-02-19T15:18:14.463Z,1025.66
2023-02-19T15:20:14.462Z,1025.66
2023-02-19T15:22:14.440Z,1025.79
2023-02-19T15:24:14.452Z,1025.84
2023-02-19T15:26:14.735Z,1025.84
2023-02-19T15:28:14.454Z,1025.95
2023-02-19T15:30:14.457Z,1025.98
2023-02-19T15:32:14.529Z,1025.98
2023-02-19T15:34:14.461Z,1025.93
2023-02-19T15:36:14.449Z,1025.93
2023-02-19T15:38:14.462Z,1025.86
2023-02-19T15:40:14.464Z,1025.80
2023-02-19T15:42:14.570Z,1025.70
2023-02-19T15:44:14.480Z,1025.74
2023-02-19T15:46:14.500Z,1025.74
2023-02-19T15:48:14.521Z,1025.68
2023-02-19T15:50:14.470Z,1025.60
2023-02-19T15:52:14.462Z,1025.49
2023-02-19T15:54:14.488Z,1025.49
2023-02-19T15:56:14.527Z,1025.49
2023-02-19T15:58:14.504Z,1025.56
2023-02-19T16:00:14.540Z,1025.56
2023-02-19T16:02:14.477Z,1025.64
2023-02-19T16:04:14.479Z,1025.64
2023-02-19T16:06:14.469Z,1025.71
2023-02-19T16:08:14.487Z,1025.71
2023-02-19T16:10:14.492Z,1025.82
2023-02-19T16:12:14.476Z,1025.74
2023-02-19T16:14:14.483Z,1025.74
2023-02-19T16:16:15.372Z,1025.74
2023-02-19T16:18:14.496Z,1025.67
2023-02-19T16:20:14.478Z,1025.64
2023-02-19T16:22:14.508Z,1025.67
2023-02-19T16:24:14.498Z,1025.67
2023-02-19T16:26:14.629Z,1025.82
2023-02-19T16:28:14.500Z,1025.87
2023-02-19T16:30:14.572Z,1025.84
2023-02-19T16:32:14.583Z,1025.84
2023-02-19T16:34:14.564Z,1025.84
2023-02-19T16:36:14.507Z,1025.89
2023-02-19T16:38:14.512Z,1025.85
2023-02-19T16:40:16.690Z,1025.85
2023-02-19T16:42:14.508Z,1025.85
2023-02-19T16:44:14.563Z,1025.86
2023-02-19T16:46:44.486Z,1025.86
2023-02-19T16:48:44.515Z,1025.89
2023-02-19T16:50:44.511Z,1025.91
2023-02-19T16:52:44.515Z,1025.90
2023-02-19T16:54:44.512Z,1025.90
2023-02-19T16:56:44.549Z,1025.90
2023-02-19T16:58:44.497Z,1025.90
2023-02-19T17:00:44.553Z,1026.02
2023-02-19T17:02:44.537Z,1026.08
2023-02-19T17:04:44.503Z,1026.08
2023-02-19T17:06:44.603Z,1026.23
2023-02-19T17:08:44.544Z,1026.23
2023-02-19T17:10:44.518Z,1026.27
2023-02-19T17:12:44.714Z,1026.23
2023-02-19T17:14:44.509Z,1026.23
2023-02-19T17:16:44.600Z,1026.25
2023-02-19T17:18:44.554Z,1026.25
2023-02-19T17:20:44.544Z,1026.25
2023-02-19T17:22:44.525Z,1026.33
2023-02-19T17:24:44.604Z,1026.33
2023-02-19T17:26:44.544Z,1026.37
2023-02-19T17:28:44.727Z,1026.37
2023-02-19T17:30:44.536Z,1026.45
2023-02-19T17:32:44.533Z,1026.45
2023-02-19T17:34:44.544Z,1026.54
2023-02-19T17:36:44.538Z,1026.57
2023-02-19T17:38:44.581Z,1026.64
2023-02-19T17:40:44.535Z,1026.65
2023-02-19T17:42:44.534Z,1026.65
2023-02-19T17:44:44.548Z,1026.60
2023-02-19T17:46:44.529Z,1026.64
2023-02-19T17:48:44.528Z,1026.84
2023-02-19T17:50:44.626Z,1026.84
2023-02-19T17:52:44.556Z,1026.84
2023-02-19T17:54:44.548Z,1026.98
2023-02-19T17:56:44.578Z,1026.98
2023-02-19T17:58:44.552Z,1027.03
2023-02-19T18:00:44.532Z,1027.03
2023-02-19T18:02:44.556Z,1027.03
2023-02-19T18:04:44.683Z,1027.11
2023-02-19T18:06:44.597Z,1027.11
2023-02-19T18:08:44.561Z,1027.14
2023-02-19T18:10:44.549Z,1027.14
2023-02-19T18:12:44.566Z,1027.22
2023-02-19T18:14:44.566Z,1027.23
2023-02-19T18:16:44.624Z,1027.23
2023-02-19T18:18:44.588Z,1027.27
2023-02-19T18:20:44.561Z,1027.27
2023-02-19T18:22:44.588Z,1027.30
2023-02-19T18:24:44.552Z,1027.30
2023-02-19T18:26:44.559Z,1027.42
2023-02-19T18:28:44.776Z,1027.42
2023-02-19T18:30:45.135Z,1027.46
2023-02-19T18:32:44.584Z,1027.47
2023-02-19T18:34:44.582Z,1027.54
2023-02-19T18:36:44.571Z,1027.54
2023-02-19T18:39:14.598Z,1027.54
2023-02-19T18:41:14.813Z,1027.57
2023-02-19T18:43:14.771Z,1027.57
2023-02-19T18:45:14.575Z,1027.57
2023-02-19T18:47:14.595Z,1027.55
2023-02-19T18:49:14.566Z,1027.55
2023-02-19T18:51:14.658Z,1027.55
2023-02-19T18:53:14.558Z,1027.55
2023-02-19T18:55:14.601Z,1027.55
2023-02-19T18:57:14.568Z,1027.55
2023-02-19T18:59:14.677Z,1027.48
2023-02-19T19:01:14.862Z,1027.50
2023-02-19T19:03:14.705Z,1027.61
2023-02-19T19:05:14.599Z,1027.62
2023-02-19T19:07:14.602Z,1027.62
2023-02-19T19:09:14.591Z,1027.67
2023-02-19T19:11:14.825Z,1027.71
2023-02-19T19:13:14.577Z,1027.69
2023-02-19T19:15:17.077Z,1027.69
2023-02-19T19:17:14.582Z,1027.69
2023-02-19T19:19:14.948Z,1027.68
2023-02-19T19:21:14.596Z,1027.71
2023-02-19T19:23:14.669Z,1027.71
2023-02-19T19:25:14.714Z,1027.71
2023-02-19T19:27:14.610Z,1027.71
2023-02-19T19:29:14.597Z,1027.71
2023-02-19T19:31:14.887Z,1027.65
2023-02-19T19:33:14.593Z,1027.68
2023-02-19T19:35:14.693Z,1027.68
2023-02-19T19:37:14.679Z,1027.69
2023-02-19T19:39:14.596Z,1027.72
2023-02-19T19:41:14.759Z,1027.70
2023-02-19T19:43:14.905Z,1027.70
2023-02-19T19:45:14.702Z,1027.70
2023-02-19T19:47:14.751Z,1027.73
2023-02-19T19:49:14.599Z,1027.76
2023-02-19T19:51:14.758Z,1027.79
2023-02-19T19:53:14.630Z,1027.86
2023-02-19T19:55:14.596Z,1027.86
2023-02-19T19:57:14.687Z,1027.85
2023-02-19T19:59:14.812Z,1027.89
2023-02-19T20:01:14.785Z,1027.93
2023-02-19T20:03:14.609Z,1027.93
2023-02-19T20:05:14.719Z,1027.93
2023-02-19T20:07:14.691Z,1027.93
2023-02-19T20:09:14.696Z,1027.86
2023-02-19T20:13:22.941Z,1027.82
2023-02-19T20:15:22.940Z,1027.89
2023-02-19T20:17:22.925Z,1027.89
2023-02-19T20:19:22.919Z,1027.89
2023-02-19T20:21:22.892Z,1027.90
2023-02-19T20:23:22.933Z,1027.90
2023-02-19T20:25:23.101Z,1027.85
2023-02-19T20:27:22.914Z,1027.81
2023-02-19T20:29:22.928Z,1027.86
2023-02-19T20:31:23.190Z,1027.86
2023-02-19T20:33:22.944Z,1027.94
2023-02-19T20:35:24.620Z,1027.90
2023-02-19T20:37:22.948Z,1027.95
2023-02-19T20:39:22.920Z,1027.94
2023-02-19T20:41:22.923Z,1027.94
2023-02-19T20:43:22.960Z,1027.91
2023-02-19T20:45:22.937Z,1027.91
2023-02-19T20:47:22.937Z,1027.89
2023-02-19T20:49:22.931Z,1027.94
2023-02-19T20:51:23.078Z,1027.94
2023-02-19T20:53:22.942Z,1027.92
2023-02-19T20:55:22.950Z,1027.87
2023-02-19T20:57:22.934Z,1027.82
2023-02-19T20:59:52.938Z,1027.83
2023-02-19T21:01:52.960Z,1027.85
2023-02-19T21:03:52.953Z,1027.85
2023-02-19T21:05:52.937Z,1027.94
2023-02-19T21:07:52.943Z,1027.95
2023-02-19T21:09:53.024Z,1028.03
2023-02-19T21:11:52.980Z,1028.00
2023-02-19T21:13:52.950Z,1028.00
2023-02-19T21:15:52.969Z,1028.00
2023-02-19T21:17:53.002Z,1027.97
2023-02-19T21:19:52.960Z,1027.93
2023-02-19T21:21:52.937Z,1027.96
2023-02-19T21:23:52.954Z,1027.96
2023-02-19T21:25:54.552Z,1027.96
2023-02-19T21:27:52.985Z,1027.95
2023-02-19T21:29:52.962Z,1027.98
2023-02-19T21:31:53.134Z,1027.98
2023-02-19T21:33:52.968Z,1028.03
2023-02-19T21:35:52.953Z,1028.10
2023-02-19T21:37:52.964Z,1028.16
2023-02-19T21:39:52.972Z,1028.14
2023-02-19T21:41:52.974Z,1028.14
2023-02-19T21:43:53.181Z,1028.15
2023-02-19T21:45:53.034Z,1028.09
2023-02-19T21:47:52.968Z,1028.10
2023-02-19T21:49:52.963Z,1028.10
2023-02-19T21:51:52.983Z,1028.10
2023-02-19T21:53:52.968Z,1028.02
2023-02-19T21:55:58.231Z,1027.99
2023-02-19T21:57:52.982Z,1027.99
2023-02-19T21:59:53.008Z,1027.99
2023-02-19T22:01:53.001Z,1027.99
2023-02-19T22:03:52.988Z,1027.97
2023-02-19T22:05:53.033Z,1027.97
2023-02-19T22:07:52.989Z,1027.92
2023-02-19T22:09:52.979Z,1027.92
2023-02-19T22:11:52.969Z,1027.92
2023-02-19T22:13:52.963Z,1027.94
2023-02-19T22:15:52.973Z,1027.95
2023-02-19T22:17:52.951Z,1027.95
2023-02-19T22:19:53.114Z,1027.95
2023-02-19T22:21:53.023Z,1028.01
2023-02-19T22:23:52.978Z,1028.07
2023-02-19T22:25:52.993Z,1028.10
2023-02-19T22:27:53.066Z,1028.11
2023-02-19T22:29:52.987Z,1028.11
2023-02-19T22:31:53.159Z,1028.18
2023-02-19T22:33:52.987Z,1028.20
2023-02-19T22:35:53.006Z,1028.23
2023-02-19T22:37:52.994Z,1028.23
2023-02-19T22:39:52.987Z,1028.27
2023-02-19T22:41:52.992Z,1028.27
2023-02-19T22:43:52.983Z,1028.19
2023-02-19T22:45:53.017Z,1028.19
2023-02-19T22:48:30.072Z,1028.19
2023-02-19T22:50:22.985Z,1028.23
2023-02-19T22:52:23.074Z,1028.28
2023-02-19T22:54:22.992Z,1028.28
2023-02-19T22:56:23.022Z,1028.20
2023-02-19T22:58:23.007Z,1028.20
2023-02-19T23:00:23.000Z,1028.16
2023-02-19T23:02:23.016Z,1028.21
2023-02-19T23:04:23.137Z,1028.28
2023-02-19T23:06:23.006Z,1028.28
2023-02-19T23:08:22.998Z,1028.31
2023-02-19T23:10:23.105Z,1028.34
2023-02-19T23:12:23.027Z,1028.43
2023-02-19T23:14:23.025Z,1028.50
2023-02-19T23:16:23.069Z,1028.50
2023-02-19T23:18:23.062Z,1028.52
2023-02-19T23:20:23.024Z,1028.47
2023-02-19T23:22:23.024Z,1028.36
2023-02-19T23:24:23.023Z,1028.38
2023-02-19T23:26:23.132Z,1028.38
2023-02-19T23:28:23.035Z,1028.38
2023-02-19T23:30:23.076Z,1028.38
2023-02-19T23:32:23.031Z,1028.44
2023-02-19T23:34:23.085Z,1028.44
2023-02-19T23:36:23.043Z,1028.37
2023-02-19T23:38:23.033Z,1028.37
2023-02-19T23:40:23.026Z,1028.39
2023-02-19T23:42:23.146Z,1028.45
2023-02-19T23:44:23.025Z,1028.45
2023-02-19T23:46:23.061Z,1028.43
2023-02-19T23:48:23.044Z,1028.40
2023-02-19T23:50:23.034Z,1028.40
2023-02-19T23:52:23.124Z,1028.43
2023-02-19T23:54:23.022Z,1028.43
2023-02-19T23:56:23.019Z,1028.41
2023-02-19T23:58:23.039Z,1028.37
